createdAt,value
2022-08-23T00:02:26.926Z,100.00
2022-08-23T00:05:07.401Z,100.00
2022-08-23T00:07:38.854Z,100.00
2022-08-23T00:10:08.676Z,100.00
2022-08-23T00:12:36.250Z,100.00
2022-08-23T00:15:05.760Z,99.96
2022-08-23T00:17:35.485Z,100.00
2022-08-23T00:20:03.358Z,100.00
2022-08-23T00:22:31.008Z,100.00
2022-08-23T00:24:59.988Z,100.00
2022-08-23T00:27:28.469Z,99.94
2022-08-23T00:29:58.212Z,99.44
2022-08-23T00:32:28.628Z,99.10
2022-08-23T00:34:56.966Z,99.27
2022-08-23T00:37:24.735Z,98.89
2022-08-23T00:39:52.398Z,98.86
2022-08-23T00:42:51.453Z,98.72
2022-08-23T00:45:41.736Z,98.42
2022-08-23T00:48:09.644Z,98.69
2022-08-23T00:50:42.042Z,98.31
2022-08-23T00:53:16.041Z,98.55
2022-08-23T00:55:47.452Z,98.35
2022-08-23T00:58:18.400Z,98.15
2022-08-23T01:00:46.057Z,98.14
2022-08-23T01:03:14.677Z,98.15
2022-08-23T01:05:48.340Z,98.32
2022-08-23T01:08:16.713Z,98.10
2022-08-23T01:10:50.659Z,97.70
2022-08-23T01:13:24.609Z,97.67
2022-08-23T01:15:57.296Z,97.42
2022-08-23T01:18:27.457Z,97.37
2022-08-23T01:21:01.097Z,97.31
2022-08-23T01:23:37.762Z,97.61
2022-08-23T01:26:07.155Z,97.93
2022-08-23T01:28:35.825Z,98.29
2022-08-23T01:31:06.525Z,98.43
2022-08-23T01:33:34.673Z,98.63
2022-08-23T01:36:04.209Z,98.80
2022-08-23T01:38:38.810Z,99.07
2022-08-23T01:41:07.212Z,99.37
2022-08-23T01:43:35.190Z,99.84
2022-08-23T01:46:10.649Z,99.99
2022-08-23T01:48:39.856Z,100.00
2022-08-23T01:51:07.725Z,100.00
2022-08-23T01:53:35.665Z,100.00
2022-08-23T01:56:05.741Z,100.00
2022-08-23T01:58:34.248Z,100.00
2022-08-23T02:01:04.667Z,100.00
2022-08-23T02:03:33.441Z,100.00
2022-08-23T02:06:01.400Z,100.00
2022-08-23T02:08:46.441Z,100.00
2022-08-23T02:11:22.540Z,100.00
2022-08-23T02:13:51.826Z,100.00
2022-08-23T02:16:24.624Z,100.00
2022-08-23T02:18:53.183Z,100.00
2022-08-23T02:21:20.977Z,100.00
2022-08-23T02:23:48.806Z,100.00
2022-08-23T02:26:17.812Z,100.00
2022-08-23T02:28:45.858Z,100.00
2022-08-23T02:31:14.575Z,100.00
2022-08-23T02:33:42.273Z,100.00
2022-08-23T02:36:10.170Z,100.00
2022-08-23T02:38:37.804Z,100.00
2022-08-23T02:41:05.552Z,100.00
2022-08-23T02:43:40.957Z,100.00
2022-08-23T02:46:08.902Z,100.00
2022-08-23T02:48:37.615Z,100.00
2022-08-23T02:51:08.117Z,100.00
2022-08-23T02:53:36.507Z,100.00
2022-08-23T02:56:04.797Z,100.00
2022-08-23T02:58:33.733Z,100.00
2022-08-23T03:01:02.025Z,100.00
2022-08-23T03:03:29.700Z,100.00
2022-08-23T03:06:24.505Z,100.00
2022-08-23T03:08:48.685Z,100.00
2022-08-23T03:11:20.811Z,100.00
2022-08-23T03:13:50.877Z,100.00
2022-08-23T03:16:18.665Z,100.00
2022-08-23T03:18:46.653Z,100.00
2022-08-23T03:21:14.530Z,100.00
2022-08-23T03:23:42.477Z,100.00
2022-08-23T03:26:11.914Z,100.00
2022-08-23T03:28:41.436Z,100.00
2022-08-23T03:31:11.286Z,100.00
2022-08-23T03:33:39.640Z,100.00
2022-08-23T03:36:09.417Z,100.00
2022-08-23T03:38:39.374Z,100.00
2022-08-23T03:41:07.418Z,100.00
2022-08-23T03:43:35.704Z,100.00
2022-08-23T03:46:03.305Z,100.00
2022-08-23T03:48:32.701Z,100.00
2022-08-23T03:51:00.425Z,100.00
2022-08-23T03:53:28.052Z,100.00
2022-08-23T03:55:56.558Z,100.00
2022-08-23T03:58:25.542Z,100.00
2022-08-23T04:00:53.102Z,100.00
2022-08-23T04:03:20.662Z,100.00
2022-08-23T04:05:49.593Z,100.00
2022-08-23T04:08:18.094Z,100.00
2022-08-23T04:10:55.919Z,100.00
2022-08-23T04:13:24.715Z,100.00
2022-08-23T04:15:55.051Z,100.00
2022-08-23T04:18:22.645Z,100.00
2022-08-23T04:20:52.605Z,100.00
2022-08-23T04:23:20.437Z,100.00
2022-08-23T04:25:48.464Z,100.00
2022-08-23T04:28:16.043Z,100.00
2022-08-23T04:30:45.581Z,100.00
2022-08-23T04:33:17.845Z,100.00
2022-08-23T04:35:46.464Z,100.00
2022-08-23T04:38:24.335Z,100.00
2022-08-23T04:41:11.438Z,100.00
2022-08-23T04:43:39.457Z,100.00
2022-08-23T04:46:07.000Z,100.00
2022-08-23T04:48:35.459Z,100.00
2022-08-23T04:51:03.359Z,100.00
2022-08-23T04:53:35.129Z,100.00
2022-08-23T04:56:03.333Z,100.00
2022-08-23T04:58:31.373Z,100.00
2022-08-23T05:01:00.761Z,100.00
2022-08-23T05:03:29.647Z,100.00
2022-08-23T05:05:58.023Z,100.00
2022-08-23T05:08:26.088Z,100.00
2022-08-23T05:10:55.129Z,99.81
2022-08-23T05:13:22.694Z,99.89
2022-08-23T05:15:52.543Z,100.00
2022-08-23T05:18:20.202Z,99.37
2022-08-23T05:20:48.067Z,98.84
2022-08-23T05:23:15.696Z,99.25
2022-08-23T05:25:52.884Z,98.84
2022-08-23T05:28:23.829Z,98.88
2022-08-23T05:31:00.347Z,98.22
2022-08-23T05:33:30.993Z,97.95
2022-08-23T05:35:59.109Z,97.31
2022-08-23T05:38:27.573Z,96.79
2022-08-23T05:40:57.313Z,96.68
2022-08-23T05:43:29.884Z,96.73
2022-08-23T05:46:02.247Z,94.31
2022-08-23T05:48:32.031Z,94.64
2022-08-23T05:51:10.182Z,94.68
2022-08-23T05:53:38.368Z,94.93
2022-08-23T05:56:12.355Z,93.74
2022-08-23T05:58:41.941Z,92.53
2022-08-23T06:01:10.150Z,92.40
2022-08-23T06:03:38.130Z,91.54
2022-08-23T06:06:06.956Z,91.29
2022-08-23T06:08:34.899Z,90.14
2022-08-23T06:11:04.829Z,88.13
2022-08-23T06:13:32.871Z,87.04
2022-08-23T06:16:14.479Z,86.75
2022-08-23T06:18:42.882Z,86.26
2022-08-23T06:21:12.277Z,84.46
2022-08-23T06:23:40.232Z,82.45
2022-08-23T06:26:12.253Z,82.92
2022-08-23T06:28:50.344Z,83.95
2022-08-23T06:31:42.114Z,78.96
2022-08-23T06:34:09.978Z,77.04
2022-08-23T06:36:38.143Z,75.86
2022-08-23T06:39:06.421Z,73.89
2022-08-23T06:41:34.584Z,74.15
2022-08-23T06:44:02.465Z,72.33
2022-08-23T06:46:32.895Z,71.02
2022-08-23T06:49:01.442Z,69.90
2022-08-23T06:51:30.924Z,72.83
2022-08-23T06:54:02.900Z,71.87
2022-08-23T06:56:31.550Z,68.67
2022-08-23T06:58:59.537Z,68.26
2022-08-23T07:01:48.465Z,67.25
2022-08-23T07:04:19.237Z,67.38
2022-08-23T07:06:47.218Z,67.82
2022-08-23T07:09:15.577Z,68.51
2022-08-23T07:11:43.589Z,69.19
2022-08-23T07:14:14.940Z,68.22
2022-08-23T07:16:45.795Z,68.30
2022-08-23T07:19:13.849Z,68.47
2022-08-23T07:21:42.928Z,67.02
2022-08-23T07:24:10.672Z,67.76
2022-08-23T07:26:39.176Z,67.14
2022-08-23T07:29:07.746Z,66.24
2022-08-23T07:31:40.306Z,65.76
2022-08-23T07:34:10.271Z,65.74
2022-08-23T07:36:40.566Z,65.84
2022-08-23T07:39:09.435Z,65.51
2022-08-23T07:41:38.703Z,65.81
2022-08-23T07:44:09.304Z,65.79
2022-08-23T07:46:41.094Z,65.23
2022-08-23T07:49:11.961Z,62.89
2022-08-23T07:51:41.668Z,63.15
2022-08-23T07:54:12.577Z,61.10
2022-08-23T07:56:40.469Z,62.33
2022-08-23T07:59:08.702Z,61.48
2022-08-23T08:01:37.160Z,59.39
2022-08-23T08:04:07.849Z,59.66
2022-08-23T08:06:41.105Z,55.77
2022-08-23T08:09:09.672Z,59.10
2022-08-23T08:11:38.023Z,58.26
2022-08-23T08:14:08.004Z,58.71
2022-08-23T08:16:38.363Z,55.30
2022-08-23T08:19:08.415Z,53.76
2022-08-23T08:21:42.051Z,53.67
2022-08-23T08:24:12.767Z,51.90
2022-08-23T08:26:41.052Z,50.30
2022-08-23T08:29:10.545Z,50.69
2022-08-23T08:31:39.283Z,48.44
2022-08-23T08:34:07.581Z,48.22
2022-08-23T08:36:39.896Z,49.67
2022-08-23T08:39:11.244Z,47.92
2022-08-23T08:42:04.628Z,47.02
2022-08-23T08:44:41.266Z,45.69
2022-08-23T08:47:12.760Z,47.96
2022-08-23T08:49:53.957Z,45.80
2022-08-23T08:52:26.867Z,46.80
2022-08-23T08:55:06.502Z,44.77
2022-08-23T08:57:40.054Z,45.08
2022-08-23T09:00:13.193Z,44.23
2022-08-23T09:02:41.863Z,44.25
2022-08-23T09:05:12.693Z,44.70
2022-08-23T09:07:51.757Z,44.79
2022-08-23T09:10:36.411Z,43.67
2022-08-23T09:13:25.244Z,44.43
2022-08-23T09:16:03.468Z,43.95
2022-08-23T09:18:34.962Z,44.19
2022-08-23T09:21:06.711Z,46.09
2022-08-23T09:23:41.410Z,44.55
2022-08-23T09:26:19.640Z,45.77
2022-08-23T09:28:48.369Z,44.97
2022-08-23T09:31:37.701Z,45.50
2022-08-23T09:34:05.904Z,44.95
2022-08-23T09:36:36.145Z,45.46
2022-08-23T09:39:07.545Z,44.59
2022-08-23T09:41:38.425Z,46.13
2022-08-23T09:44:08.769Z,45.43
2022-08-23T09:46:39.141Z,45.18
2022-08-23T09:49:26.195Z,44.39
2022-08-23T09:51:55.717Z,45.18
2022-08-23T09:54:30.069Z,45.07
2022-08-23T09:56:59.794Z,44.97
2022-08-23T09:59:42.406Z,44.07
2022-08-23T10:02:17.021Z,44.25
2022-08-23T10:04:56.321Z,43.79
2022-08-23T10:07:38.294Z,43.62
2022-08-23T10:10:19.718Z,44.45
2022-08-23T10:12:47.934Z,43.98
2022-08-23T10:15:17.552Z,44.82
2022-08-23T10:17:52.949Z,44.23
2022-08-23T10:20:33.793Z,43.50
2022-08-23T10:23:12.934Z,44.35
2022-08-23T10:25:46.245Z,44.22
2022-08-23T10:28:40.974Z,42.22
2022-08-23T10:31:15.438Z,42.45
2022-08-23T10:33:47.442Z,42.81
2022-08-23T10:36:21.401Z,43.14
2022-08-23T10:38:57.377Z,41.60
2022-08-23T10:41:58.601Z,42.02
2022-08-23T10:44:35.144Z,40.83
2022-08-23T10:47:20.767Z,40.85
2022-08-23T10:49:53.061Z,41.21
2022-08-23T10:52:25.041Z,40.64
2022-08-23T10:55:06.439Z,39.82
2022-08-23T10:57:38.837Z,40.82
2022-08-23T11:00:09.459Z,40.76
2022-08-23T11:02:43.499Z,40.28
2022-08-23T11:05:20.806Z,38.75
2022-08-23T11:07:59.395Z,38.35
2022-08-23T11:10:32.441Z,39.97
2022-08-23T11:13:06.106Z,38.84
2022-08-23T11:15:44.520Z,38.53
2022-08-23T11:18:38.067Z,38.95
2022-08-23T11:21:25.481Z,39.30
2022-08-23T11:23:55.860Z,38.18
2022-08-23T11:27:06.313Z,37.93
2022-08-23T11:29:37.809Z,38.29
2022-08-23T11:32:20.766Z,37.41
2022-08-23T11:34:59.553Z,36.88
2022-08-23T11:37:31.596Z,37.30
2022-08-23T11:40:10.534Z,38.30
2022-08-23T11:42:51.133Z,38.13
2022-08-23T11:45:31.316Z,37.71
2022-08-23T11:48:14.109Z,36.68
2022-08-23T11:51:05.848Z,37.20
2022-08-23T11:53:55.821Z,37.09
2022-08-23T11:56:42.233Z,36.99
2022-08-23T11:59:41.622Z,36.41
2022-08-23T12:02:37.006Z,36.60
2022-08-23T12:05:19.438Z,37.39
2022-08-23T12:07:55.637Z,36.94
2022-08-23T12:10:45.223Z,36.49
2022-08-23T12:13:33.069Z,36.53
2022-08-23T12:16:14.716Z,35.71
2022-08-23T12:18:53.342Z,36.54
2022-08-23T12:21:26.528Z,37.09
2022-08-23T12:24:01.366Z,36.62
2022-08-23T12:26:32.982Z,36.21
2022-08-23T12:29:05.365Z,36.05
2022-08-23T12:31:38.759Z,36.39
2022-08-23T12:34:19.485Z,35.11
2022-08-23T12:36:55.921Z,35.96
2022-08-23T12:39:30.373Z,35.79
2022-08-23T12:42:03.945Z,36.54
2022-08-23T12:44:34.813Z,35.87
2022-08-23T12:47:12.594Z,34.85
2022-08-23T12:49:40.853Z,35.67
2022-08-23T12:52:10.741Z,34.46
2022-08-23T12:54:42.325Z,34.50
2022-08-23T12:57:15.929Z,34.66
2022-08-23T12:59:50.428Z,35.03
2022-08-23T13:02:29.018Z,35.33
2022-08-23T13:05:02.570Z,35.69
2022-08-23T13:07:32.151Z,35.97
2022-08-23T13:10:01.245Z,35.66
2022-08-23T13:12:29.121Z,35.41
2022-08-23T13:15:01.289Z,35.59
2022-08-23T13:17:36.536Z,35.18
2022-08-23T13:20:19.880Z,34.17
2022-08-23T13:22:58.196Z,34.98
2022-08-23T13:25:31.882Z,34.77
2022-08-23T13:28:01.293Z,34.29
2022-08-23T13:30:30.993Z,33.99
2022-08-23T13:33:21.364Z,34.42
2022-08-23T13:35:50.350Z,34.31
2022-08-23T13:38:23.979Z,34.68
2022-08-23T13:40:58.019Z,34.30
2022-08-23T13:43:31.220Z,33.78
2022-08-23T13:46:01.907Z,33.57
2022-08-23T13:48:32.897Z,34.61
2022-08-23T13:51:30.771Z,33.75
2022-08-23T13:54:00.508Z,33.94
2022-08-23T13:56:32.209Z,33.81
2022-08-23T13:59:02.481Z,33.19
2022-08-23T14:01:30.690Z,33.40
2022-08-23T14:03:58.410Z,32.83
2022-08-23T14:06:26.336Z,32.77
2022-08-23T14:08:53.925Z,33.52
2022-08-23T14:11:21.637Z,34.34
2022-08-23T14:13:50.984Z,34.95
2022-08-23T14:16:33.153Z,34.36
2022-08-23T14:19:54.307Z,34.78
2022-08-23T14:21:49.108Z,34.61
2022-08-23T14:24:19.808Z,35.02
2022-08-23T14:26:50.375Z,35.63
2022-08-23T14:29:22.707Z,35.85
2022-08-23T14:31:51.329Z,36.43
2022-08-23T14:34:19.122Z,38.40
2022-08-23T14:39:34.239Z,35.97
2022-08-23T14:42:01.943Z,36.42
2022-08-23T14:44:35.681Z,36.65
2022-08-23T14:47:04.837Z,36.92
2022-08-23T14:49:32.485Z,38.21
2022-08-23T14:52:00.264Z,39.97
2022-08-23T14:54:27.980Z,38.78
2022-08-23T14:56:55.708Z,40.63
2022-08-23T14:59:23.277Z,43.32
2022-08-23T15:01:55.541Z,43.92
2022-08-23T15:04:24.716Z,43.91
2022-08-23T15:07:16.749Z,44.25
2022-08-23T15:09:42.028Z,44.70
2022-08-23T15:12:57.201Z,44.90
2022-08-23T15:14:57.717Z,43.86
2022-08-23T15:17:31.289Z,44.26
2022-08-23T15:19:59.808Z,44.55
2022-08-23T15:22:27.343Z,43.87
2022-08-23T15:24:54.912Z,44.04
2022-08-23T15:27:23.296Z,44.76
2022-08-23T15:29:50.853Z,44.82
2022-08-23T15:32:22.267Z,44.25
2022-08-23T15:34:51.672Z,44.19
2022-08-23T15:37:21.347Z,44.38
2022-08-23T15:39:49.230Z,44.66
2022-08-23T15:42:20.516Z,45.01
2022-08-23T15:44:48.551Z,45.21
2022-08-23T15:47:21.269Z,45.37
2022-08-23T15:49:48.916Z,45.87
2022-08-23T15:52:18.333Z,45.54
2022-08-23T15:54:45.912Z,45.73
2022-08-23T15:57:17.568Z,45.65
2022-08-23T15:59:45.904Z,45.50
2022-08-23T16:02:13.586Z,45.68
2022-08-23T16:04:41.670Z,45.41
2022-08-23T16:07:11.732Z,45.97
2022-08-23T16:09:40.812Z,45.76
2022-08-23T16:12:09.274Z,45.78
2022-08-23T16:14:38.417Z,45.79
2022-08-23T16:17:06.683Z,45.32
2022-08-23T16:19:34.357Z,45.76
2022-08-23T16:22:02.238Z,45.88
2022-08-23T16:24:29.966Z,46.08
2022-08-23T16:26:58.974Z,45.79
2022-08-23T16:29:31.797Z,46.21
2022-08-23T16:31:59.532Z,45.85
2022-08-23T16:34:27.284Z,46.11
2022-08-23T16:36:58.611Z,46.25
2022-08-23T16:39:27.188Z,46.19
2022-08-23T16:41:55.089Z,46.32
2022-08-23T16:44:23.993Z,46.71
2022-08-23T16:46:52.414Z,46.39
2022-08-23T16:49:20.018Z,46.71
2022-08-23T16:51:48.131Z,47.13
2022-08-23T16:54:16.486Z,47.16
2022-08-23T16:56:44.058Z,47.06
2022-08-23T16:59:13.495Z,47.26
2022-08-23T17:01:47.804Z,47.69
2022-08-23T17:04:16.220Z,47.64
2022-08-23T17:06:43.880Z,47.71
2022-08-23T17:09:12.049Z,48.31
2022-08-23T17:11:41.530Z,48.69
2022-08-23T17:14:09.188Z,48.82
2022-08-23T17:16:37.313Z,49.57
2022-08-23T17:19:06.283Z,50.17
2022-08-23T17:21:33.865Z,50.43
2022-08-23T17:24:02.257Z,50.54
2022-08-23T17:26:29.832Z,50.68
2022-08-23T17:28:57.441Z,51.66
2022-08-23T17:31:26.942Z,51.78
2022-08-23T17:33:54.934Z,52.34
2022-08-23T17:36:33.294Z,52.93
2022-08-23T17:39:01.503Z,53.36
2022-08-23T17:41:29.268Z,53.65
2022-08-23T17:44:02.937Z,53.72
2022-08-23T17:46:30.513Z,53.79
2022-08-23T17:48:58.553Z,53.95
2022-08-23T17:51:26.513Z,54.36
2022-08-23T17:53:55.404Z,54.12
2022-08-23T17:56:23.147Z,54.68
2022-08-23T17:58:52.897Z,55.11
2022-08-23T18:01:21.819Z,55.68
2022-08-23T18:03:49.645Z,55.54
2022-08-23T18:06:17.976Z,55.61
2022-08-23T18:08:45.922Z,55.89
2022-08-23T18:11:15.800Z,56.13
2022-08-23T18:13:43.416Z,56.49
2022-08-23T18:16:11.113Z,56.92
2022-08-23T18:18:39.532Z,57.39
2022-08-23T18:21:09.112Z,57.38
2022-08-23T18:23:37.091Z,58.01
2022-08-23T18:26:07.889Z,58.01
2022-08-23T18:28:36.473Z,58.17
2022-08-23T18:31:05.892Z,58.76
2022-08-23T18:33:46.997Z,58.97
2022-08-23T18:36:15.511Z,59.09
2022-08-23T18:38:44.207Z,59.42
2022-08-23T18:41:13.030Z,59.31
2022-08-23T18:43:42.188Z,59.76
2022-08-23T18:46:11.378Z,59.89
2022-08-23T18:48:40.052Z,59.92
2022-08-23T18:51:14.056Z,61.33
2022-08-23T18:53:45.930Z,60.48
2022-08-23T18:56:13.509Z,60.45
2022-08-23T18:58:42.448Z,60.36
2022-08-23T19:01:21.943Z,60.81
2022-08-23T19:03:49.909Z,60.72
2022-08-23T19:06:17.743Z,60.41
2022-08-23T19:08:46.981Z,60.34
2022-08-23T19:11:15.683Z,60.92
2022-08-23T19:13:45.121Z,60.57
2022-08-23T19:16:14.109Z,60.53
2022-08-23T19:18:42.475Z,60.59
2022-08-23T19:21:14.544Z,60.55
2022-08-23T19:23:42.369Z,60.53
2022-08-23T19:26:10.240Z,60.73
2022-08-23T19:28:38.257Z,60.12
2022-08-23T19:31:09.346Z,60.01
2022-08-23T19:33:36.941Z,59.24
2022-08-23T19:36:06.207Z,59.17
2022-08-23T19:38:34.478Z,58.97
2022-08-23T19:41:06.261Z,58.80
2022-08-23T19:43:35.387Z,58.66
2022-08-23T19:46:13.935Z,58.30
2022-08-23T19:48:41.838Z,58.23
2022-08-23T19:51:10.310Z,58.10
2022-08-23T19:53:37.910Z,57.81
2022-08-23T19:56:08.600Z,58.09
2022-08-23T19:58:39.217Z,57.93
2022-08-23T20:01:08.584Z,58.12
2022-08-23T20:03:36.168Z,58.02
2022-08-23T20:06:03.733Z,58.21
2022-08-23T20:08:32.041Z,58.24
2022-08-23T20:11:01.389Z,58.31
2022-08-23T20:13:29.092Z,58.29
2022-08-23T20:15:56.821Z,58.19
2022-08-23T20:18:25.787Z,58.51
2022-08-23T20:20:53.986Z,58.35
2022-08-23T20:23:39.181Z,58.52
2022-08-23T20:26:09.875Z,58.37
2022-08-23T20:28:37.641Z,58.54
2022-08-23T20:31:07.780Z,58.65
2022-08-23T20:33:36.809Z,58.85
2022-08-23T20:36:04.992Z,59.11
2022-08-23T20:38:33.086Z,59.13
2022-08-23T20:41:00.835Z,59.52
2022-08-23T20:43:30.905Z,59.46
2022-08-23T20:45:58.492Z,59.48
2022-08-23T20:48:26.288Z,59.88
2022-08-23T20:50:55.178Z,59.44
2022-08-23T20:53:22.749Z,59.63
2022-08-23T20:55:50.312Z,59.57
2022-08-23T20:58:17.866Z,59.47
2022-08-23T21:00:45.452Z,59.22
2022-08-23T21:03:13.012Z,59.63
2022-08-23T21:05:40.633Z,59.34
2022-08-23T21:08:13.065Z,59.33
2022-08-23T21:10:40.778Z,59.12
2022-08-23T21:13:12.532Z,58.67
2022-08-23T21:15:40.149Z,58.85
2022-08-23T21:18:07.744Z,58.61
2022-08-23T21:20:35.306Z,58.02
2022-08-23T21:23:02.999Z,58.20
2022-08-23T21:25:32.057Z,57.90
2022-08-23T21:28:04.112Z,57.98
2022-08-23T21:30:32.120Z,57.29
2022-08-23T21:32:59.872Z,57.06
2022-08-23T21:35:27.446Z,57.01
2022-08-23T21:37:55.003Z,56.66
2022-08-23T21:40:22.896Z,56.44
2022-08-23T21:42:51.945Z,56.30
2022-08-23T21:45:19.648Z,56.10
2022-08-23T21:47:47.394Z,56.25
2022-08-23T21:50:16.101Z,55.73
2022-08-23T21:52:44.837Z,55.83
2022-08-23T21:55:22.619Z,55.59
2022-08-23T21:58:00.596Z,55.50
2022-08-23T22:00:28.199Z,55.43
2022-08-23T22:02:56.099Z,55.49
2022-08-23T22:05:23.852Z,55.14
2022-08-23T22:07:51.817Z,55.43
2022-08-23T22:10:19.924Z,55.59
2022-08-23T22:12:48.168Z,55.57
2022-08-23T22:15:18.283Z,55.50
2022-08-23T22:17:45.849Z,55.40
2022-08-23T22:20:14.270Z,55.71
2022-08-23T22:22:43.440Z,55.73
2022-08-23T22:25:12.550Z,55.73
2022-08-23T22:27:40.325Z,55.98
2022-08-23T22:30:09.164Z,56.04
2022-08-23T22:32:38.075Z,56.35
2022-08-23T22:35:06.576Z,56.96
2022-08-23T22:37:34.157Z,56.80
2022-08-23T22:40:01.877Z,56.89
2022-08-23T22:42:29.449Z,56.99
2022-08-23T22:44:57.077Z,57.15
2022-08-23T22:47:24.656Z,57.58
2022-08-23T22:49:53.704Z,57.86
2022-08-23T22:52:21.440Z,58.21
2022-08-23T22:54:49.370Z,58.70
2022-08-23T22:57:16.990Z,58.56
2022-08-23T22:59:44.671Z,59.08
2022-08-23T23:02:12.621Z,58.96
2022-08-23T23:04:42.556Z,58.57
2022-08-23T23:07:11.843Z,58.29
2022-08-23T23:09:38.434Z,58.37
2022-08-23T23:12:06.220Z,58.51
2022-08-23T23:14:34.540Z,58.43
2022-08-23T23:17:02.152Z,58.37
2022-08-23T23:19:47.393Z,58.32
2022-08-23T23:22:16.321Z,58.23
2022-08-23T23:24:43.884Z,58.84
2022-08-23T23:27:11.625Z,58.00
2022-08-23T23:29:39.199Z,58.03
2022-08-23T23:32:07.148Z,58.28
2022-08-23T23:34:34.894Z,58.37
2022-08-23T23:37:02.518Z,58.48
2022-08-23T23:39:31.562Z,58.75
2022-08-23T23:41:59.430Z,59.20
2022-08-23T23:44:30.829Z,59.40
2022-08-23T23:46:59.684Z,60.08
2022-08-23T23:49:32.473Z,60.17
2022-08-23T23:52:01.326Z,60.40
2022-08-23T23:54:28.917Z,61.46
2022-08-23T23:56:57.874Z,62.61
2022-08-23T23:59:26.373Z,62.84
